Time;durP1;ratioP1;P1;durP2;ratioP2;P2;SDS_P1;SDS_P2;PMS_P1;PMS_P2;Temp;Humidity;BMP_temperature;BMP_pressure;BME280_temperature;BME280_humidity;BME280_pressure;Samples;Min_cycle;Max_cycle;Signal;HPM_P1;HPM_P2
2022/02/23 00:00:30;;;;;;;;;;;8.30;99.90;;;;;;5037351;28;20239;-66
2022/02/23 00:02:56;;;;;;;;;;;8.40;99.90;;;;;;5055712;28;19909;-64
2022/02/23 00:05:21;;;;;;;;;;;8.40;99.90;;;;;;5037856;28;19913;-63
2022/02/23 00:07:47;;;;;;;;;;;8.30;99.90;;;;;;5038194;28;19909;-65
2022/02/23 00:10:12;;;;;;;;;;;8.30;99.90;;;;;;5038220;28;19911;-64
2022/02/23 00:12:38;;;;;;;;;;;8.30;99.90;;;;;;5039038;28;20524;-63
2022/02/23 00:15:04;;;;;;;;;;;8.30;99.90;;;;;;5038844;28;19912;-65
2022/02/23 00:17:31;;;;;;;;;;;8.30;99.90;;;;;;5056046;28;20346;-68
2022/02/23 00:19:56;;;;;;;;;;;8.30;99.90;;;;;;5057202;28;19915;-64
2022/02/23 00:22:22;;;;;;;;;;;8.30;99.90;;;;;;5055095;28;19911;-67
2022/02/23 00:24:48;;;;;;;;;;;8.30;99.90;;;;;;5057053;28;19909;-63
2022/02/23 00:27:13;;;;;;;;;;;8.20;99.90;;;;;;5057153;28;19904;-67
2022/02/23 00:29:39;;;;;;;;;;;8.30;99.90;;;;;;5038926;28;20126;-64
2022/02/23 00:32:05;;;;;;;;;;;8.20;99.90;;;;;;5039269;28;19905;-64
2022/02/23 00:34:30;;;;;;;;;;;8.10;99.90;;;;;;5057575;28;19908;-64
2022/02/23 00:36:56;;;;;;;;;;;8.10;99.90;;;;;;5057684;28;19931;-67
2022/02/23 00:39:22;;;;;;;;;;;8.00;99.90;;;;;;5057333;28;19909;-63
2022/02/23 00:41:48;;;;;;;;;;;8.10;99.90;;;;;;5038624;28;19904;-64
2022/02/23 00:44:14;;;;;;;;;;;8.10;99.90;;;;;;5038579;28;19924;-63
2022/02/23 00:46:40;;;;;;;;;;;8.10;99.90;;;;;;5054620;28;19912;-66
2022/02/23 00:49:05;;;;;;;;;;;8.10;99.90;;;;;;5055656;28;20384;-65
2022/02/23 00:51:31;;;;;;;;;;;8.00;99.90;;;;;;5037548;28;19908;-64
2022/02/23 00:53:57;;;;;;;;;;;8.00;99.90;;;;;;5055108;28;19904;-63
2022/02/23 00:56:23;;;;;;;;;;;8.00;99.90;;;;;;5054706;28;19909;-65
2022/02/23 00:58:48;;;;;;;;;;;7.90;99.90;;;;;;5055238;28;20273;-63
2022/02/23 01:01:14;;;;;;;;;;;7.90;99.90;;;;;;5036648;28;19904;-63
2022/02/23 01:03:39;;;;;;;;;;;7.90;99.90;;;;;;5054568;28;19909;-63
2022/02/23 01:06:05;;;;;;;;;;;7.90;99.90;;;;;;5055525;28;20281;-63
2022/02/23 01:08:30;;;;;;;;;;;7.80;99.90;;;;;;5036900;28;20360;-63
2022/02/23 01:10:56;;;;;;;;;;;7.80;99.90;;;;;;5055487;28;19912;-63
2022/02/23 01:13:22;;;;;;;;;;;7.80;99.90;;;;;;5055111;28;19909;-70
2022/02/23 01:15:47;;;;;;;;;;;7.80;99.90;;;;;;5037044;28;19917;-68
2022/02/23 01:18:13;;;;;;;;;;;7.80;99.90;;;;;;5054700;28;19916;-63
2022/02/23 01:20:39;;;;;;;;;;;7.80;99.90;;;;;;5036338;28;19921;-63
2022/02/23 01:23:05;;;;;;;;;;;7.80;99.90;;;;;;5054333;28;19975;-63
2022/02/23 01:25:31;;;;;;;;;;;7.80;99.90;;;;;;5053913;28;19911;-64
2022/02/23 01:27:59;;;;;;;;;;;7.80;99.90;;;;;;5054388;28;19905;-63
2022/02/23 01:30:25;;;;;;;;;;;7.80;99.90;;;;;;5055947;28;19939;-67
2022/02/23 01:32:51;;;;;;;;;;;7.80;99.90;;;;;;5056988;28;19904;-64
2022/02/23 01:35:17;;;;;;;;;;;7.90;99.90;;;;;;5056391;28;19980;-64
2022/02/23 01:37:42;;;;;;;;;;;7.80;99.90;;;;;;5056406;28;19912;-69
2022/02/23 01:40:08;;;;;;;;;;;7.70;99.90;;;;;;5038863;28;20349;-64
2022/02/23 01:42:34;;;;;;;;;;;7.80;99.90;;;;;;5056494;28;19917;-66
2022/02/23 01:44:59;;;;;;;;;;;7.80;99.90;;;;;;5056365;28;19909;-64
2022/02/23 01:47:25;;;;;;;;;;;7.60;99.90;;;;;;5037755;28;19912;-64
2022/02/23 01:49:50;;;;;;;;;;;7.60;99.90;;;;;;5055753;28;20354;-72
2022/02/23 01:52:16;;;;;;;;;;;7.60;99.90;;;;;;5038348;28;19905;-64
2022/02/23 01:54:41;;;;;;;;;;;7.60;99.90;;;;;;5054767;28;19915;-64
2022/02/23 01:57:07;;;;;;;;;;;7.50;99.90;;;;;;5055590;28;19995;-63
2022/02/23 01:59:33;;;;;;;;;;;7.50;99.90;;;;;;5037019;28;20274;-64
2022/02/23 02:01:58;;;;;;;;;;;7.50;99.90;;;;;;5055112;28;20281;-70
2022/02/23 02:04:24;;;;;;;;;;;7.50;99.90;;;;;;5038002;28;19913;-64
2022/02/23 02:06:50;;;;;;;;;;;7.50;99.90;;;;;;5054925;28;19917;-63
2022/02/23 02:09:15;;;;;;;;;;;7.60;99.90;;;;;;5054790;28;20294;-65
2022/02/23 02:11:41;;;;;;;;;;;7.60;99.90;;;;;;5052648;28;19911;-66
2022/02/23 02:14:06;;;;;;;;;;;7.60;99.90;;;;;;5036435;28;20269;-64
2022/02/23 02:16:32;;;;;;;;;;;7.50;99.90;;;;;;5036024;28;19912;-64
2022/02/23 02:18:58;;;;;;;;;;;7.50;99.90;;;;;;5036033;28;19923;-64
2022/02/23 02:21:28;;;;;;;;;;;7.40;99.90;;;;;;5053803;28;19908;-65
2022/02/23 02:23:54;;;;;;;;;;;7.50;99.90;;;;;;5036038;28;19935;-69
2022/02/23 02:26:19;;;;;;;;;;;7.50;99.90;;;;;;5054063;28;19931;-66
2022/02/23 02:28:45;;;;;;;;;;;7.50;99.90;;;;;;5035212;28;19905;-64
2022/02/23 02:31:10;;;;;;;;;;;7.50;99.90;;;;;;5053765;28;19904;-64
2022/02/23 02:33:36;;;;;;;;;;;7.60;99.90;;;;;;5035761;28;19905;-63
2022/02/23 02:36:02;;;;;;;;;;;7.50;99.90;;;;;;5053860;28;19986;-63
2022/02/23 02:38:27;;;;;;;;;;;7.50;99.90;;;;;;5052872;28;19987;-72
2022/02/23 02:40:52;;;;;;;;;;;7.60;99.90;;;;;;5053731;28;19904;-63
2022/02/23 02:43:18;;;;;;;;;;;7.50;99.90;;;;;;5053191;28;19956;-64
2022/02/23 02:45:44;;;;;;;;;;;7.40;99.90;;;;;;5053801;28;20000;-64
2022/02/23 02:48:09;;;;;;;;;;;7.40;99.90;;;;;;5054749;28;19905;-65
2022/02/23 02:50:35;;;;;;;;;;;7.30;99.90;;;;;;5053874;28;19905;-64
2022/02/23 02:53:00;;;;;;;;;;;7.20;99.90;;;;;;5054437;28;19905;-67
2022/02/23 02:55:26;;;;;;;;;;;7.30;99.90;;;;;;5053603;28;19955;-64
2022/02/23 02:57:51;;;;;;;;;;;7.30;99.90;;;;;;5033609;28;19915;-63
2022/02/23 03:00:17;;;;;;;;;;;7.20;99.90;;;;;;5053719;28;19991;-64
2022/02/23 03:02:42;;;;;;;;;;;7.20;99.90;;;;;;5053292;28;19920;-64
2022/02/23 03:05:08;;;;;;;;;;;7.30;99.90;;;;;;5055080;28;19911;-67
2022/02/23 03:07:34;;;;;;;;;;;7.30;99.90;;;;;;5057835;28;19927;-63
2022/02/23 03:09:59;;;;;;;;;;;7.30;99.90;;;;;;5057480;28;19905;-70
2022/02/23 03:12:26;;;;;;;;;;;7.10;99.90;;;;;;5039906;28;19912;-65
2022/02/23 03:14:51;;;;;;;;;;;7.10;99.90;;;;;;5041847;28;20375;-67
2022/02/23 03:17:19;;;;;;;;;;;7.20;99.90;;;;;;5058290;28;20000;-64
2022/02/23 03:19:45;;;;;;;;;;;7.20;99.90;;;;;;5058081;28;19905;-63
2022/02/23 03:22:11;;;;;;;;;;;7.30;99.90;;;;;;5039511;28;19904;-72
2022/02/23 03:24:36;;;;;;;;;;;7.20;99.90;;;;;;5038033;28;19913;-67
2022/02/23 03:27:02;;;;;;;;;;;7.30;99.90;;;;;;5039048;28;19994;-63
2022/02/23 03:29:28;;;;;;;;;;;7.30;99.90;;;;;;5056126;28;19958;-64
2022/02/23 03:31:54;;;;;;;;;;;7.30;99.90;;;;;;5038356;28;19908;-66
2022/02/23 03:34:20;;;;;;;;;;;7.30;99.90;;;;;;5039636;28;20007;-67
2022/02/23 03:36:45;;;;;;;;;;;7.30;99.90;;;;;;5040389;28;19951;-64
2022/02/23 03:39:11;;;;;;;;;;;7.30;99.90;;;;;;5039864;28;20236;-62
2022/02/23 03:41:37;;;;;;;;;;;7.30;99.90;;;;;;5038733;28;19904;-64
2022/02/23 03:44:02;;;;;;;;;;;7.30;99.90;;;;;;5039617;28;19921;-64
2022/02/23 03:46:28;;;;;;;;;;;7.30;99.90;;;;;;5039691;28;20365;-64
2022/02/23 03:48:53;;;;;;;;;;;7.30;99.90;;;;;;5022189;28;19971;-64
2022/02/23 03:51:19;;;;;;;;;;;7.30;99.90;;;;;;5039376;28;19904;-63
2022/02/23 03:53:44;;;;;;;;;;;7.30;99.90;;;;;;5037943;28;19911;-64
2022/02/23 03:56:38;;;;;;;;;;;7.30;99.90;;;;;;5040157;28;19956;-65
2022/02/23 03:58:57;;;;;;;;;;;7.30;99.90;;;;;;5055564;28;19904;-63
2022/02/23 04:01:22;;;;;;;;;;;7.20;99.90;;;;;;5038411;28;19913;-63
2022/02/23 04:03:48;;;;;;;;;;;7.20;99.90;;;;;;5038132;28;20360;-64
2022/02/23 04:06:13;;;;;;;;;;;7.30;99.90;;;;;;5056227;28;19911;-66
2022/02/23 04:08:39;;;;;;;;;;;7.30;99.90;;;;;;5038021;28;19912;-64
2022/02/23 04:11:04;;;;;;;;;;;7.30;99.90;;;;;;5038218;28;20346;-63
2022/02/23 04:13:30;;;;;;;;;;;7.30;99.90;;;;;;5056022;28;19974;-64
2022/02/23 04:15:56;;;;;;;;;;;7.30;99.90;;;;;;5037931;28;19915;-64
2022/02/23 04:18:21;;;;;;;;;;;7.30;99.90;;;;;;5055747;28;20273;-64
2022/02/23 04:20:47;;;;;;;;;;;7.20;99.90;;;;;;5037991;28;19916;-64
2022/02/23 04:23:12;;;;;;;;;;;7.20;99.90;;;;;;5056324;28;19914;-65
2022/02/23 04:25:38;;;;;;;;;;;7.30;99.90;;;;;;5037840;28;19905;-63
2022/02/23 04:28:04;;;;;;;;;;;7.20;99.90;;;;;;5037944;28;20265;-63
2022/02/23 04:30:31;;;;;;;;;;;7.20;99.90;;;;;;5056012;28;20277;-63
2022/02/23 04:32:57;;;;;;;;;;;7.20;99.90;;;;;;5037809;28;19955;-65
2022/02/23 04:35:22;;;;;;;;;;;7.10;99.90;;;;;;5056116;28;19908;-64
2022/02/23 04:37:49;;;;;;;;;;;7.10;99.90;;;;;;5055139;28;20270;-65
2022/02/23 04:40:15;;;;;;;;;;;7.10;99.90;;;;;;5055278;28;19955;-63
2022/02/23 04:42:40;;;;;;;;;;;7.00;99.90;;;;;;5039677;28;20011;-64
2022/02/23 04:45:06;;;;;;;;;;;7.00;99.90;;;;;;5055307;28;19988;-64
2022/02/23 04:47:32;;;;;;;;;;;7.00;99.90;;;;;;5055586;28;20262;-63
2022/02/23 04:49:58;;;;;;;;;;;6.90;99.90;;;;;;5037441;28;19995;-63
2022/02/23 04:52:26;;;;;;;;;;;7.00;99.90;;;;;;5055401;28;19905;-64
2022/02/23 04:54:56;;;;;;;;;;;7.00;99.90;;;;;;5055292;28;19927;-66
2022/02/23 04:57:22;;;;;;;;;;;7.00;99.90;;;;;;5037550;28;19912;-66
2022/02/23 04:59:48;;;;;;;;;;;6.90;99.90;;;;;;5054505;28;19962;-64
2022/02/23 05:02:14;;;;;;;;;;;6.90;99.90;;;;;;5037197;28;19905;-64
2022/02/23 05:04:39;;;;;;;;;;;6.90;99.90;;;;;;5054836;28;19913;-64
2022/02/23 05:07:05;;;;;;;;;;;6.90;99.90;;;;;;5055766;28;19905;-64
2022/02/23 05:09:31;;;;;;;;;;;7.00;99.90;;;;;;5055961;28;19944;-64
2022/02/23 05:11:56;;;;;;;;;;;7.00;99.90;;;;;;5037223;28;19919;-64
2022/02/23 05:14:22;;;;;;;;;;;6.90;99.90;;;;;;5055639;28;19913;-62
2022/02/23 05:16:47;;;;;;;;;;;7.00;99.90;;;;;;5055053;28;19911;-64
2022/02/23 05:19:13;;;;;;;;;;;6.90;99.90;;;;;;5037964;28;19916;-67
2022/02/23 05:21:39;;;;;;;;;;;6.90;99.90;;;;;;5037721;28;19932;-64
2022/02/23 05:24:04;;;;;;;;;;;7.00;99.90;;;;;;5057451;28;19912;-67
2022/02/23 05:26:30;;;;;;;;;;;7.00;99.90;;;;;;5055686;28;20380;-64
2022/02/23 05:28:56;;;;;;;;;;;6.80;99.90;;;;;;5048702;28;20262;-66
2022/02/23 05:31:22;;;;;;;;;;;6.90;99.90;;;;;;5035052;28;19909;-63
2022/02/23 05:33:47;;;;;;;;;;;6.90;99.90;;;;;;5024109;28;19915;-66
2022/02/23 05:36:13;;;;;;;;;;;6.90;99.90;;;;;;5035975;28;19954;-67
2022/02/23 05:38:38;;;;;;;;;;;6.90;99.90;;;;;;5053151;28;19912;-63
2022/02/23 05:41:05;;;;;;;;;;;6.90;99.90;;;;;;5036234;28;20271;-63
2022/02/23 05:43:31;;;;;;;;;;;6.90;99.90;;;;;;5037749;28;19920;-68
2022/02/23 05:45:57;;;;;;;;;;;6.80;99.90;;;;;;5055095;28;19909;-63
2022/02/23 05:48:22;;;;;;;;;;;6.80;99.90;;;;;;5054646;28;20326;-64
2022/02/23 05:50:48;;;;;;;;;;;6.80;99.90;;;;;;5053681;28;20369;-63
2022/02/23 05:53:14;;;;;;;;;;;6.80;99.90;;;;;;5036366;28;19940;-64
2022/02/23 05:55:39;;;;;;;;;;;6.80;99.90;;;;;;5053436;28;19909;-65
2022/02/23 05:58:05;;;;;;;;;;;6.90;99.90;;;;;;5053901;28;19905;-64
2022/02/23 06:00:30;;;;;;;;;;;6.90;99.90;;;;;;5036128;28;19905;-63
2022/02/23 06:02:56;;;;;;;;;;;6.90;99.90;;;;;;5053063;28;19916;-64
2022/02/23 06:05:21;;;;;;;;;;;6.90;99.90;;;;;;5053813;28;20285;-64
2022/02/23 06:07:47;;;;;;;;;;;6.90;99.90;;;;;;5053554;28;19909;-65
2022/02/23 06:10:12;;;;;;;;;;;6.90;99.90;;;;;;5037791;28;20365;-65
2022/02/23 06:12:38;;;;;;;;;;;6.80;99.90;;;;;;5056165;28;19904;-67
2022/02/23 06:15:04;;;;;;;;;;;6.70;99.90;;;;;;5056021;28;20353;-67
2022/02/23 06:17:29;;;;;;;;;;;6.70;99.90;;;;;;5029892;28;20370;-64
2022/02/23 06:19:55;;;;;;;;;;;6.70;99.90;;;;;;5015937;28;19905;-65
2022/02/23 06:22:20;;;;;;;;;;;6.60;99.90;;;;;;5015871;28;19932;-70
2022/02/23 06:24:46;;;;;;;;;;;6.70;99.90;;;;;;5015311;28;19917;-69
2022/02/23 06:27:13;;;;;;;;;;;6.70;99.90;;;;;;5016662;28;19913;-70
2022/02/23 06:29:39;;;;;;;;;;;6.70;99.90;;;;;;5015050;28;19905;-68
2022/02/23 06:32:07;;;;;;;;;;;6.70;99.90;;;;;;5014336;28;20366;-66
2022/02/23 06:34:33;;;;;;;;;;;6.80;99.90;;;;;;5014013;28;19959;-65
2022/02/23 06:37:02;;;;;;;;;;;6.80;99.90;;;;;;5012671;28;19952;-64
2022/02/23 06:39:29;;;;;;;;;;;6.90;99.90;;;;;;5011295;28;19917;-63
2022/02/23 06:41:54;;;;;;;;;;;6.90;99.90;;;;;;5009154;28;19915;-65
2022/02/23 06:44:23;;;;;;;;;;;6.90;99.90;;;;;;5010495;28;20015;-68
2022/02/23 06:46:49;;;;;;;;;;;7.00;99.90;;;;;;5017760;28;19932;-66
2022/02/23 06:49:15;;;;;;;;;;;7.00;99.90;;;;;;5015995;28;19909;-64
2022/02/23 06:51:41;;;;;;;;;;;7.00;99.90;;;;;;5017016;28;19956;-65
2022/02/23 06:54:06;;;;;;;;;;;7.10;99.90;;;;;;5018005;28;19905;-64
2022/02/23 06:56:32;;;;;;;;;;;7.20;99.90;;;;;;5016560;28;20000;-64
2022/02/23 06:58:57;;;;;;;;;;;7.30;99.90;;;;;;5014472;28;19917;-66
2022/02/23 07:01:24;;;;;;;;;;;7.30;99.90;;;;;;5014150;28;19916;-69
2022/02/23 07:03:49;;;;;;;;;;;7.50;99.90;;;;;;5016200;28;19959;-67
2022/02/23 07:06:15;;;;;;;;;;;7.60;99.90;;;;;;5019500;28;19972;-63
2022/02/23 07:08:45;;;;;;;;;;;7.60;99.90;;;;;;5016775;28;19916;-66
2022/02/23 07:11:11;;;;;;;;;;;7.60;99.90;;;;;;5013407;28;19909;-67
2022/02/23 07:13:36;;;;;;;;;;;7.80;99.90;;;;;;5001486;28;19957;-66
2022/02/23 07:16:02;;;;;;;;;;;7.90;99.90;;;;;;4999415;28;20015;-64
2022/02/23 07:18:30;;;;;;;;;;;8.10;99.90;;;;;;5010942;28;19917;-67
2022/02/23 07:20:56;;;;;;;;;;;8.30;99.90;;;;;;5018307;28;19952;-64
2022/02/23 07:23:22;;;;;;;;;;;8.40;99.90;;;;;;5023473;28;19925;-64
2022/02/23 07:25:51;;;;;;;;;;;8.50;99.90;;;;;;5036734;28;19915;-65
2022/02/23 07:28:17;;;;;;;;;;;8.80;99.90;;;;;;5036887;28;19905;-63
2022/02/23 07:30:43;;;;;;;;;;;9.50;99.90;;;;;;5037100;28;19905;-63
2022/02/23 07:33:10;;;;;;;;;;;9.90;99.90;;;;;;5037275;28;19912;-63
2022/02/23 07:35:37;;;;;;;;;;;9.70;99.90;;;;;;5035884;28;19947;-64
2022/02/23 07:38:05;;;;;;;;;;;9.70;99.90;;;;;;5035414;28;20054;-64
2022/02/23 07:40:31;;;;;;;;;;;9.40;99.90;;;;;;5037180;28;19928;-65
2022/02/23 07:43:00;;;;;;;;;;;9.70;99.90;;;;;;5036880;28;19917;-64
2022/02/23 07:45:26;;;;;;;;;;;9.70;99.90;;;;;;5036173;28;20280;-65
2022/02/23 07:47:52;;;;;;;;;;;9.60;99.90;;;;;;5035577;28;20081;-65
2022/02/23 07:50:19;;;;;;;;;;;9.70;99.90;;;;;;5035540;28;19964;-64
2022/02/23 07:52:49;;;;;;;;;;;9.50;99.90;;;;;;5034783;28;20405;-63
2022/02/23 07:55:15;;;;;;;;;;;9.90;99.90;;;;;;5035764;28;20312;-64
2022/02/23 07:57:41;;;;;;;;;;;10.20;99.90;;;;;;5035720;28;19951;-64
2022/02/23 08:00:09;;;;;;;;;;;10.40;99.90;;;;;;5035170;28;19908;-64
2022/02/23 08:02:35;;;;;;;;;;;10.60;99.90;;;;;;5018920;28;20008;-64
2022/02/23 08:05:01;;;;;;;;;;;10.60;99.90;;;;;;5035615;28;19912;-68
2022/02/23 08:07:28;;;;;;;;;;;10.80;99.90;;;;;;5035985;28;20266;-64
2022/02/23 08:09:53;;;;;;;;;;;11.10;99.90;;;;;;5036109;28;19905;-65
2022/02/23 08:12:19;;;;;;;;;;;11.00;99.90;;;;;;5036487;28;19909;-67
2022/02/23 08:14:44;;;;;;;;;;;11.30;99.90;;;;;;5035119;28;20358;-65
2022/02/23 08:19:54;;;;;;;;;;;12.00;99.90;;;;;;5056942;28;19930;-65
2022/02/23 08:22:20;;;;;;;;;;;12.20;99.90;;;;;;5057219;28;20015;-66
2022/02/23 08:24:47;;;;;;;;;;;12.60;99.90;;;;;;5039275;28;19919;-65
2022/02/23 08:27:14;;;;;;;;;;;12.70;99.90;;;;;;5056675;28;20354;-69
2022/02/23 08:29:40;;;;;;;;;;;12.60;99.90;;;;;;5039076;28;19904;-65
2022/02/23 08:32:08;;;;;;;;;;;12.50;99.90;;;;;;5032369;28;20350;-65
2022/02/23 08:34:34;;;;;;;;;;;12.70;99.90;;;;;;5002209;28;19948;-63
2022/02/23 08:37:00;;;;;;;;;;;13.00;99.90;;;;;;5017733;28;19968;-63
2022/02/23 08:39:25;;;;;;;;;;;13.20;99.90;;;;;;5035749;28;19909;-65
2022/02/23 08:41:51;;;;;;;;;;;13.30;99.90;;;;;;5035344;28;19915;-65
2022/02/23 08:44:17;;;;;;;;;;;13.50;99.90;;;;;;5035273;28;19923;-64
2022/02/23 08:46:43;;;;;;;;;;;13.90;99.40;;;;;;5035121;28;20343;-66
2022/02/23 08:49:09;;;;;;;;;;;14.10;99.10;;;;;;5016844;28;20422;-65
2022/02/23 08:51:36;;;;;;;;;;;14.40;98.10;;;;;;5034889;28;19905;-64
2022/02/23 08:54:02;;;;;;;;;;;14.60;98.00;;;;;;5021014;28;19909;-65
2022/02/23 08:56:27;;;;;;;;;;;15.10;97.70;;;;;;5036096;28;19916;-65
2022/02/23 08:58:53;;;;;;;;;;;15.00;97.20;;;;;;5047534;28;20411;-66
2022/02/23 09:01:18;;;;;;;;;;;14.40;98.40;;;;;;5053398;28;20320;-65
2022/02/23 09:03:44;;;;;;;;;;;14.80;98.30;;;;;;5053338;28;19912;-65
2022/02/23 09:06:10;;;;;;;;;;;15.50;97.00;;;;;;5035449;28;19909;-65
2022/02/23 09:08:36;;;;;;;;;;;15.80;97.70;;;;;;5023483;28;19909;-65
2022/02/23 09:11:01;;;;;;;;;;;15.90;99.90;;;;;;5025640;28;20326;-67
2022/02/23 09:13:27;;;;;;;;;;;16.10;99.90;;;;;;5030271;28;19913;-65
2022/02/23 09:15:52;;;;;;;;;;;16.00;97.70;;;;;;5044235;28;20405;-68
2022/02/23 09:18:18;;;;;;;;;;;15.80;99.90;;;;;;5015329;28;20369;-64
2022/02/23 09:20:43;;;;;;;;;;;16.00;96.00;;;;;;5003961;28;19909;-65
2022/02/23 09:23:09;;;;;;;;;;;15.80;95.50;;;;;;5001211;28;20428;-65
2022/02/23 09:25:35;;;;;;;;;;;16.20;95.40;;;;;;5004852;28;19910;-63
2022/02/23 09:28:00;;;;;;;;;;;15.50;94.60;;;;;;5003232;28;19906;-64
2022/02/23 09:30:27;;;;;;;;;;;15.80;94.00;;;;;;5007402;28;19913;-65
2022/02/23 09:32:54;;;;;;;;;;;16.50;99.90;;;;;;4999105;28;20497;-64
2022/02/23 09:35:20;;;;;;;;;;;16.70;95.40;;;;;;5003951;28;19909;-62
2022/02/23 09:37:46;;;;;;;;;;;16.80;93.10;;;;;;5011822;28;19955;-63
2022/02/23 09:40:14;;;;;;;;;;;17.10;96.60;;;;;;5012921;28;19905;-65
2022/02/23 09:42:41;;;;;;;;;;;17.50;99.90;;;;;;5004192;28;19909;-64
2022/02/23 09:45:07;;;;;;;;;;;17.80;94.10;;;;;;5002196;28;19909;-64
2022/02/23 09:47:33;;;;;;;;;;;17.50;89.90;;;;;;5012354;28;20003;-64
2022/02/23 09:49:59;;;;;;;;;;;17.10;85.90;;;;;;5013100;28;19905;-64
2022/02/23 09:52:25;;;;;;;;;;;17.20;89.00;;;;;;5012714;28;19913;-65
2022/02/23 09:54:51;;;;;;;;;;;17.00;87.50;;;;;;5011367;28;19913;-72
2022/02/23 09:57:18;;;;;;;;;;;16.80;87.30;;;;;;5003970;28;20274;-67
2022/02/23 09:59:44;;;;;;;;;;;17.00;85.90;;;;;;5002787;28;19987;-64
2022/02/23 10:02:10;;;;;;;;;;;17.20;83.30;;;;;;5001081;28;19909;-64
2022/02/23 10:04:36;;;;;;;;;;;16.90;81.00;;;;;;5003518;28;19980;-67
2022/02/23 10:07:02;;;;;;;;;;;16.10;86.90;;;;;;4995318;28;20379;-64
2022/02/23 10:09:28;;;;;;;;;;;16.20;85.90;;;;;;5002944;28;20004;-64
2022/02/23 10:11:54;;;;;;;;;;;16.20;86.80;;;;;;5002886;28;20004;-64
2022/02/23 10:14:19;;;;;;;;;;;16.20;86.40;;;;;;5002594;28;19921;-66
2022/02/23 10:16:47;;;;;;;;;;;15.60;88.40;;;;;;4999779;28;20418;-67
2022/02/23 10:19:13;;;;;;;;;;;16.00;87.60;;;;;;5034781;28;19925;-68
2022/02/23 10:21:56;;;;;;;;;;;16.10;87.10;;;;;;5033815;28;19909;-68
2022/02/23 10:24:35;;;;;;;;;;;16.30;88.10;;;;;;5047941;28;20116;-69
2022/02/23 10:27:04;;;;;;;;;;;16.90;86.20;;;;;;5046591;28;19909;-67
2022/02/23 10:29:31;;;;;;;;;;;17.30;85.50;;;;;;5033920;28;19913;-67
2022/02/23 10:31:57;;;;;;;;;;;17.10;84.40;;;;;;5036020;28;19947;-66
2022/02/23 10:34:23;;;;;;;;;;;16.10;85.30;;;;;;5036561;28;19909;-64
2022/02/23 10:36:59;;;;;;;;;;;15.80;86.60;;;;;;5035407;28;19911;-66
2022/02/23 10:39:33;;;;;;;;;;;15.30;88.00;;;;;;5035334;28;20308;-66
2022/02/23 10:42:03;;;;;;;;;;;15.80;88.90;;;;;;5033683;28;20403;-65
2022/02/23 10:44:29;;;;;;;;;;;16.10;87.70;;;;;;5034950;28;20384;-68
2022/02/23 10:46:55;;;;;;;;;;;16.80;84.80;;;;;;5052672;28;20278;-65
2022/02/23 10:49:20;;;;;;;;;;;16.60;83.40;;;;;;5035322;28;19904;-65
2022/02/23 10:51:48;;;;;;;;;;;15.80;85.10;;;;;;5053598;28;19904;-66
2022/02/23 10:54:14;;;;;;;;;;;15.10;88.20;;;;;;5052841;28;19904;-65
2022/02/23 10:56:40;;;;;;;;;;;15.90;87.40;;;;;;5053148;28;19905;-65
2022/02/23 10:59:09;;;;;;;;;;;15.50;85.70;;;;;;5053040;28;20341;-65
2022/02/23 11:01:35;;;;;;;;;;;15.90;84.50;;;;;;5035342;28;19905;-67
2022/02/23 11:04:01;;;;;;;;;;;15.70;84.90;;;;;;5034711;28;19913;-65
2022/02/23 11:06:27;;;;;;;;;;;16.00;82.40;;;;;;5053075;28;19905;-65
2022/02/23 11:08:54;;;;;;;;;;;16.00;84.80;;;;;;5034756;28;20350;-72
2022/02/23 11:11:20;;;;;;;;;;;16.50;82.40;;;;;;5052938;28;20346;-66
2022/02/23 11:13:46;;;;;;;;;;;17.00;78.30;;;;;;5053271;28;20421;-65
2022/02/23 11:16:12;;;;;;;;;;;15.50;82.30;;;;;;5052789;28;19909;-65
2022/02/23 11:18:41;;;;;;;;;;;15.40;84.70;;;;;;5035226;28;19924;-66
2022/02/23 11:21:09;;;;;;;;;;;15.40;83.90;;;;;;5053251;28;19905;-65
2022/02/23 11:23:37;;;;;;;;;;;14.90;85.00;;;;;;5053387;28;20014;-70
2022/02/23 11:26:04;;;;;;;;;;;14.90;84.80;;;;;;5036645;28;19980;-65
2022/02/23 11:28:32;;;;;;;;;;;15.30;84.10;;;;;;5040475;28;20330;-66
2022/02/23 11:31:06;;;;;;;;;;;15.50;83.20;;;;;;5040068;28;19995;-67
2022/02/23 11:33:47;;;;;;;;;;;15.50;83.00;;;;;;5039949;28;19972;-68
2022/02/23 11:36:20;;;;;;;;;;;16.20;81.60;;;;;;5039481;28;19915;-69
2022/02/23 11:38:48;;;;;;;;;;;16.70;80.30;;;;;;5040350;28;19995;-68
2022/02/23 11:41:30;;;;;;;;;;;16.70;80.10;;;;;;5039800;28;20281;-67
2022/02/23 11:43:57;;;;;;;;;;;17.00;77.70;;;;;;5039384;28;19921;-65
2022/02/23 11:46:22;;;;;;;;;;;17.20;77.40;;;;;;5057786;28;19908;-69
2022/02/23 11:51:35;;;;;;;;;;;17.90;72.70;;;;;;5057744;28;19912;-66
2022/02/23 12:02:36;;;;;;;;;;;18.70;67.80;;;;;;5056800;28;20383;-67
2022/02/23 12:05:02;;;;;;;;;;;17.80;68.90;;;;;;5038231;28;19917;-65
2022/02/23 12:07:43;;;;;;;;;;;18.50;67.80;;;;;;5039172;28;19979;-69
2022/02/23 12:10:09;;;;;;;;;;;18.40;67.60;;;;;;5039100;28;20008;-68
2022/02/23 12:12:39;;;;;;;;;;;18.40;68.90;;;;;;5039684;28;19978;-66
2022/02/23 12:15:07;;;;;;;;;;;18.70;67.00;;;;;;5056849;28;19916;-65
2022/02/23 12:17:46;;;;;;;;;;;18.30;66.60;;;;;;5038532;28;19928;-65
2022/02/23 12:20:30;;;;;;;;;;;18.40;66.80;;;;;;5037471;28;19967;-68
2022/02/23 12:22:59;;;;;;;;;;;18.60;66.00;;;;;;5038960;28;20358;-66
2022/02/23 12:25:44;;;;;;;;;;;18.60;65.60;;;;;;5056672;28;19905;-65
2022/02/23 12:28:09;;;;;;;;;;;18.40;64.20;;;;;;5055578;28;20043;-70
2022/02/23 12:30:39;;;;;;;;;;;18.10;64.20;;;;;;5038819;28;20287;-65
2022/02/23 12:33:11;;;;;;;;;;;18.40;65.30;;;;;;5055892;28;19905;-66
2022/02/23 12:35:37;;;;;;;;;;;18.40;64.50;;;;;;5047145;28;19956;-64
2022/02/23 12:38:03;;;;;;;;;;;18.30;64.80;;;;;;4995425;28;20364;-66
2022/02/23 12:40:29;;;;;;;;;;;18.00;70.70;;;;;;4993471;28;19906;-64
2022/02/23 12:43:04;;;;;;;;;;;18.20;83.70;;;;;;5009227;28;19916;-67
2022/02/23 12:45:30;;;;;;;;;;;18.80;73.90;;;;;;5006022;28;19914;-66
2022/02/23 12:47:57;;;;;;;;;;;19.20;69.50;;;;;;4996365;28;19916;-67
2022/02/23 12:50:26;;;;;;;;;;;19.10;74.50;;;;;;4996090;28;20436;-65
2022/02/23 12:52:53;;;;;;;;;;;18.70;69.20;;;;;;5001683;28;19913;-71
2022/02/23 12:55:19;;;;;;;;;;;19.10;69.20;;;;;;5000365;28;20344;-65
2022/02/23 12:57:46;;;;;;;;;;;19.20;75.00;;;;;;4997223;28;19996;-64
2022/02/23 13:00:12;;;;;;;;;;;19.00;69.60;;;;;;4996669;28;19948;-69
2022/02/23 13:02:38;;;;;;;;;;;19.30;64.90;;;;;;5013540;28;19906;-70
2022/02/23 13:05:04;;;;;;;;;;;19.60;77.70;;;;;;5008615;28;19986;-65
2022/02/23 13:07:29;;;;;;;;;;;18.70;72.00;;;;;;5010460;28;20373;-67
2022/02/23 13:10:02;;;;;;;;;;;19.20;79.30;;;;;;5023912;28;20483;-67
2022/02/23 13:12:29;;;;;;;;;;;19.60;70.60;;;;;;5036943;28;19909;-65
2022/02/23 13:14:57;;;;;;;;;;;19.40;65.50;;;;;;5018816;28;19909;-67
2022/02/23 13:17:23;;;;;;;;;;;19.70;70.60;;;;;;5016010;28;20008;-66
2022/02/23 13:19:49;;;;;;;;;;;20.20;63.00;;;;;;5034681;28;19941;-65
2022/02/23 13:22:30;;;;;;;;;;;19.50;69.20;;;;;;5035974;28;19912;-66
2022/02/23 13:24:56;;;;;;;;;;;19.40;72.40;;;;;;5034689;28;19936;-65
2022/02/23 13:27:29;;;;;;;;;;;17.80;71.80;;;;;;5034262;28;19913;-65
2022/02/23 13:29:56;;;;;;;;;;;18.50;69.90;;;;;;5042692;28;20373;-67
2022/02/23 13:32:28;;;;;;;;;;;17.80;72.10;;;;;;5029781;28;19909;-68
2022/02/23 13:34:57;;;;;;;;;;;18.00;68.70;;;;;;5034230;28;19947;-67
2022/02/23 13:37:27;;;;;;;;;;;18.30;66.90;;;;;;5030774;28;19923;-68
2022/02/23 13:40:11;;;;;;;;;;;18.10;68.40;;;;;;5020392;28;19936;-65
2022/02/23 13:42:38;;;;;;;;;;;17.70;67.70;;;;;;5028276;28;19916;-66
2022/02/23 13:45:11;;;;;;;;;;;17.80;69.50;;;;;;5040508;28;19917;-65
2022/02/23 13:47:38;;;;;;;;;;;17.90;67.60;;;;;;5021885;28;19955;-66
2022/02/23 13:50:05;;;;;;;;;;;17.70;68.30;;;;;;5031042;28;19909;-64
2022/02/23 13:52:34;;;;;;;;;;;18.00;67.70;;;;;;5047700;28;19927;-66
2022/02/23 13:55:04;;;;;;;;;;;18.10;65.80;;;;;;5033020;28;19916;-67
2022/02/23 13:57:41;;;;;;;;;;;18.10;65.00;;;;;;5036234;28;20366;-68
2022/02/23 14:00:09;;;;;;;;;;;18.80;64.00;;;;;;5035426;28;20003;-67
2022/02/23 14:02:36;;;;;;;;;;;18.70;63.00;;;;;;5044942;28;19912;-67
2022/02/23 14:05:04;;;;;;;;;;;18.50;62.90;;;;;;5034804;28;19936;-64
2022/02/23 14:07:29;;;;;;;;;;;18.10;64.00;;;;;;5053898;28;19915;-65
2022/02/23 14:09:55;;;;;;;;;;;17.60;64.40;;;;;;5053972;28;19905;-67
2022/02/23 14:12:20;;;;;;;;;;;16.70;65.00;;;;;;5045836;28;19932;-72
2022/02/23 14:14:46;;;;;;;;;;;17.50;65.10;;;;;;5040789;28;19912;-65
2022/02/23 14:17:18;;;;;;;;;;;17.30;64.30;;;;;;5035018;28;19924;-66
2022/02/23 14:19:44;;;;;;;;;;;17.70;65.10;;;;;;5029147;28;20255;-65
2022/02/23 14:22:15;;;;;;;;;;;18.00;63.20;;;;;;5052087;28;19909;-69
2022/02/23 14:24:42;;;;;;;;;;;18.20;62.30;;;;;;5037044;28;20381;-67
2022/02/23 14:27:14;;;;;;;;;;;17.50;61.30;;;;;;5036031;28;19905;-67
2022/02/23 14:29:45;;;;;;;;;;;18.20;62.40;;;;;;5036396;28;19904;-67
2022/02/23 14:32:16;;;;;;;;;;;18.60;61.60;;;;;;5053736;28;19911;-69
2022/02/23 14:34:48;;;;;;;;;;;19.10;62.00;;;;;;5036788;28;19904;-69